Bertioga, Brazil
Current Conditions -  °F | °C
As of 7:00 AM on Sunday 26 Oct 2014 (Local Time) from SBST Reporting Station
Haze Haze  
Wind Chill: 70°   Ceiling: 700
Heat Index: 70°   Visibility: 2.5mi
Dew Point: 70°   Wind: 0mph
Humidity: 100%   Direction: NA
Pressure: 29.91"   Gusts: NA
Location:  23.85°S, 46.14°W
Report Text: SBST 260900Z 00000KT 4000 BR BKN007 OVC047 21/21 Q1013
Loading
Personal Weather Stations






























Interactive Weather Map
Tropical Storm Tracking
New forecast layout! Learn more

10-Day Weather Forecast

Advertisements
Track Severe Weather on mobile